MET'MAP v2.0
soon released !

Expected late october,
this new version will be
more efficient, smarter,
and hosted on a brand new
server x3 powerfull...
...and still free !


Not compatible ?
Try the mobile version !

LOG IN : | Subscribe | Disclaimer | Who is Orbifly ? |
ICAO code :

TAF - LFRI La Roche Sur Yon - Les Ajoncs - 15 Dec 2019 06:41 UTC
Data Sources :     NOAA   


- Airport Elevation : 299 ft
- IATA code : EDM
- No reported NOTAMs.


LFRI - La Roche Sur Yon - Les Ajoncs

Latest METAR recorded : 2019/12/15 05:30 LFRI 150530Z AUTO 23007KT 9999 FEW020 SCT076 OVC120 11/08 Q1004 TEMPO 4000 SHRA BKN020TCU
NO TAF


MET'MAP, your aeronautical weather chart ! - Copyright ORBIFLY December 2007

Programming & Development : Alexandra Zaïnal
Co-Developer : Marc-Olivier Méhu
Technical & hardware support : Manuel Goepfert
Concept & Financing : Baudouin d'Aumeries